sensor_id;sensor_type;location;lat;lon;timestamp;P1;durP1;ratioP1;P2;durP2;ratioP2
7359;SDS011;3720;48.274;7.796;2023-03-23T00:00:40;4.70;;;2.20;;
7359;SDS011;3720;48.274;7.796;2023-03-23T00:03:14;3.17;;;2.03;;
7359;SDS011;3720;48.274;7.796;2023-03-23T00:05:45;2.80;;;1.95;;
7359;SDS011;3720;48.274;7.796;2023-03-23T00:08:20;4.57;;;2.25;;
7359;SDS011;3720;48.274;7.796;2023-03-23T00:10:52;4.20;;;2.20;;
7359;SDS011;3720;48.274;7.796;2023-03-23T00:13:27;5.65;;;3.28;;
7359;SDS011;3720;48.274;7.796;2023-03-23T00:16:00;4.50;;;2.55;;
7359;SDS011;3720;48.274;7.796;2023-03-23T00:18:33;5.53;;;3.40;;
7359;SDS011;3720;48.274;7.796;2023-03-23T00:21:05;5.80;;;3.47;;
7359;SDS011;3720;48.274;7.796;2023-03-23T00:23:37;7.28;;;3.22;;
7359;SDS011;3720;48.274;7.796;2023-03-23T00:26:10;4.57;;;2.80;;
7359;SDS011;3720;48.274;7.796;2023-03-23T00:28:43;4.70;;;2.50;;
7359;SDS011;3720;48.274;7.796;2023-03-23T00:31:16;4.03;;;2.58;;
7359;SDS011;3720;48.274;7.796;2023-03-23T00:33:50;4.57;;;2.50;;
7359;SDS011;3720;48.274;7.796;2023-03-23T00:36:23;5.18;;;2.70;;
7359;SDS011;3720;48.274;7.796;2023-03-23T00:38:56;4.28;;;2.13;;
7359;SDS011;3720;48.274;7.796;2023-03-23T00:41:29;4.38;;;2.20;;
7359;SDS011;3720;48.274;7.796;2023-03-23T00:44:01;3.83;;;2.33;;
7359;SDS011;3720;48.274;7.796;2023-03-23T00:46:33;2.78;;;1.77;;
7359;SDS011;3720;48.274;7.796;2023-03-23T00:49:17;3.95;;;1.67;;
7359;SDS011;3720;48.274;7.796;2023-03-23T00:51:55;3.35;;;1.90;;
7359;SDS011;3720;48.274;7.796;2023-03-23T00:54:28;3.08;;;1.85;;
7359;SDS011;3720;48.274;7.796;2023-03-23T00:57:00;3.40;;;1.80;;
7359;SDS011;3720;48.274;7.796;2023-03-23T00:59:32;3.05;;;1.80;;
7359;SDS011;3720;48.274;7.796;2023-03-23T01:02:04;3.47;;;1.88;;
7359;SDS011;3720;48.274;7.796;2023-03-23T01:04:39;4.18;;;1.70;;
7359;SDS011;3720;48.274;7.796;2023-03-23T01:07:14;3.28;;;1.58;;
7359;SDS011;3720;48.274;7.796;2023-03-23T01:09:48;2.25;;;1.60;;
7359;SDS011;3720;48.274;7.796;2023-03-23T01:12:23;2.65;;;1.60;;
7359;SDS011;3720;48.274;7.796;2023-03-23T01:14:55;2.47;;;1.70;;
7359;SDS011;3720;48.274;7.796;2023-03-23T01:17:27;2.22;;;1.58;;
7359;SDS011;3720;48.274;7.796;2023-03-23T01:20:00;3.58;;;1.88;;
7359;SDS011;3720;48.274;7.796;2023-03-23T01:22:34;3.65;;;1.80;;
7359;SDS011;3720;48.274;7.796;2023-03-23T01:25:07;2.95;;;1.75;;
7359;SDS011;3720;48.274;7.796;2023-03-23T01:27:40;2.65;;;1.70;;
7359;SDS011;3720;48.274;7.796;2023-03-23T01:30:13;2.50;;;1.70;;
7359;SDS011;3720;48.274;7.796;2023-03-23T01:32:45;2.53;;;1.73;;
7359;SDS011;3720;48.274;7.796;2023-03-23T01:35:18;2.53;;;1.70;;
7359;SDS011;3720;48.274;7.796;2023-03-23T01:37:51;3.20;;;1.63;;
7359;SDS011;3720;48.274;7.796;2023-03-23T01:40:23;2.28;;;1.63;;
7359;SDS011;3720;48.274;7.796;2023-03-23T01:42:57;4.80;;;2.20;;
7359;SDS011;3720;48.274;7.796;2023-03-23T01:45:31;3.13;;;1.75;;
7359;SDS011;3720;48.274;7.796;2023-03-23T01:48:06;3.10;;;1.65;;
7359;SDS011;3720;48.274;7.796;2023-03-23T01:50:45;4.18;;;1.65;;
7359;SDS011;3720;48.274;7.796;2023-03-23T01:53:23;4.00;;;1.70;;
7359;SDS011;3720;48.274;7.796;2023-03-23T01:56:00;4.65;;;1.83;;
7359;SDS011;3720;48.274;7.796;2023-03-23T01:58:33;5.03;;;1.98;;
7359;SDS011;3720;48.274;7.796;2023-03-23T02:01:09;2.95;;;1.90;;
7359;SDS011;3720;48.274;7.796;2023-03-23T02:03:44;2.80;;;1.70;;
7359;SDS011;3720;48.274;7.796;2023-03-23T02:06:19;4.13;;;1.70;;
7359;SDS011;3720;48.274;7.796;2023-03-23T02:08:51;3.40;;;1.90;;
7359;SDS011;3720;48.274;7.796;2023-03-23T02:11:23;2.63;;;1.80;;
7359;SDS011;3720;48.274;7.796;2023-03-23T02:13:55;2.28;;;1.80;;
7359;SDS011;3720;48.274;7.796;2023-03-23T02:16:30;3.05;;;1.90;;
7359;SDS011;3720;48.274;7.796;2023-03-23T02:19:20;2.47;;;1.70;;
7359;SDS011;3720;48.274;7.796;2023-03-23T02:22:13;4.35;;;1.63;;
7359;SDS011;3720;48.274;7.796;2023-03-23T02:25:16;2.90;;;1.77;;
7359;SDS011;3720;48.274;7.796;2023-03-23T02:31:16;2.00;;;1.48;;
7359;SDS011;3720;48.274;7.796;2023-03-23T02:33:57;3.08;;;1.60;;
7359;SDS011;3720;48.274;7.796;2023-03-23T02:36:33;5.00;;;1.77;;
7359;SDS011;3720;48.274;7.796;2023-03-23T02:39:14;2.85;;;1.70;;
7359;SDS011;3720;48.274;7.796;2023-03-23T02:41:51;3.00;;;1.67;;
7359;SDS011;3720;48.274;7.796;2023-03-23T02:44:27;1.85;;;1.52;;
7359;SDS011;3720;48.274;7.796;2023-03-23T02:47:02;2.00;;;1.58;;
7359;SDS011;3720;48.274;7.796;2023-03-23T02:49:39;3.08;;;1.58;;
7359;SDS011;3720;48.274;7.796;2023-03-23T02:52:14;2.80;;;1.50;;
7359;SDS011;3720;48.274;7.796;2023-03-23T02:54:49;2.22;;;1.50;;
7359;SDS011;3720;48.274;7.796;2023-03-23T02:57:24;3.75;;;1.70;;
7359;SDS011;3720;48.274;7.796;2023-03-23T02:59:58;3.60;;;1.70;;
7359;SDS011;3720;48.274;7.796;2023-03-23T03:02:30;3.10;;;1.85;;
7359;SDS011;3720;48.274;7.796;2023-03-23T03:05:06;2.45;;;1.42;;
7359;SDS011;3720;48.274;7.796;2023-03-23T03:07:47;3.65;;;1.73;;
7359;SDS011;3720;48.274;7.796;2023-03-23T03:10:29;4.45;;;1.40;;
7359;SDS011;3720;48.274;7.796;2023-03-23T03:13:08;3.67;;;1.50;;
7359;SDS011;3720;48.274;7.796;2023-03-23T03:18:20;2.20;;;1.48;;
7359;SDS011;3720;48.274;7.796;2023-03-23T03:20:58;2.08;;;1.35;;
7359;SDS011;3720;48.274;7.796;2023-03-23T03:23:34;2.65;;;1.35;;
7359;SDS011;3720;48.274;7.796;2023-03-23T03:26:11;4.18;;;1.40;;
7359;SDS011;3720;48.274;7.796;2023-03-23T03:28:47;2.13;;;1.50;;
7359;SDS011;3720;48.274;7.796;2023-03-23T03:31:21;2.05;;;1.50;;
7359;SDS011;3720;48.274;7.796;2023-03-23T03:33:57;3.42;;;1.40;;
7359;SDS011;3720;48.274;7.796;2023-03-23T03:36:33;2.50;;;1.30;;
7359;SDS011;3720;48.274;7.796;2023-03-23T03:39:07;3.50;;;1.35;;
7359;SDS011;3720;48.274;7.796;2023-03-23T03:41:40;2.95;;;1.70;;
7359;SDS011;3720;48.274;7.796;2023-03-23T03:44:13;2.33;;;1.30;;
7359;SDS011;3720;48.274;7.796;2023-03-23T03:46:45;3.83;;;1.60;;
7359;SDS011;3720;48.274;7.796;2023-03-23T03:49:18;2.05;;;1.40;;
7359;SDS011;3720;48.274;7.796;2023-03-23T03:51:51;2.58;;;1.60;;
7359;SDS011;3720;48.274;7.796;2023-03-23T03:54:23;2.75;;;1.50;;
7359;SDS011;3720;48.274;7.796;2023-03-23T03:56:55;2.05;;;1.45;;
7359;SDS011;3720;48.274;7.796;2023-03-23T03:59:27;1.90;;;1.40;;
7359;SDS011;3720;48.274;7.796;2023-03-23T04:02:00;2.67;;;1.60;;
7359;SDS011;3720;48.274;7.796;2023-03-23T04:04:32;3.05;;;1.38;;
7359;SDS011;3720;48.274;7.796;2023-03-23T04:07:05;2.25;;;1.40;;
7359;SDS011;3720;48.274;7.796;2023-03-23T04:09:37;2.28;;;1.30;;
7359;SDS011;3720;48.274;7.796;2023-03-23T04:12:10;3.85;;;1.50;;
7359;SDS011;3720;48.274;7.796;2023-03-23T04:14:41;2.22;;;1.30;;
7359;SDS011;3720;48.274;7.796;2023-03-23T04:17:13;2.63;;;1.45;;
7359;SDS011;3720;48.274;7.796;2023-03-23T04:19:47;2.90;;;1.40;;
7359;SDS011;3720;48.274;7.796;2023-03-23T04:22:21;2.25;;;1.58;;
7359;SDS011;3720;48.274;7.796;2023-03-23T04:24:54;2.03;;;1.40;;
7359;SDS011;3720;48.274;7.796;2023-03-23T04:27:28;2.00;;;1.45;;
7359;SDS011;3720;48.274;7.796;2023-03-23T04:30:00;2.38;;;1.45;;
7359;SDS011;3720;48.274;7.796;2023-03-23T04:32:32;3.00;;;1.58;;
7359;SDS011;3720;48.274;7.796;2023-03-23T04:35:06;1.90;;;1.35;;
7359;SDS011;3720;48.274;7.796;2023-03-23T04:37:40;6.18;;;1.77;;
7359;SDS011;3720;48.274;7.796;2023-03-23T04:40:12;3.40;;;1.77;;
7359;SDS011;3720;48.274;7.796;2023-03-23T04:42:46;2.45;;;1.50;;
7359;SDS011;3720;48.274;7.796;2023-03-23T04:45:19;3.20;;;1.70;;
7359;SDS011;3720;48.274;7.796;2023-03-23T04:47:52;2.67;;;1.45;;
7359;SDS011;3720;48.274;7.796;2023-03-23T04:50:28;2.38;;;1.50;;
7359;SDS011;3720;48.274;7.796;2023-03-23T04:53:04;3.75;;;1.67;;
7359;SDS011;3720;48.274;7.796;2023-03-23T04:55:36;2.22;;;1.60;;
7359;SDS011;3720;48.274;7.796;2023-03-23T04:58:08;2.90;;;1.67;;
7359;SDS011;3720;48.274;7.796;2023-03-23T05:00:42;1.77;;;1.45;;
7359;SDS011;3720;48.274;7.796;2023-03-23T05:03:19;2.63;;;1.67;;
7359;SDS011;3720;48.274;7.796;2023-03-23T05:05:52;2.15;;;1.60;;
7359;SDS011;3720;48.274;7.796;2023-03-23T05:08:26;2.55;;;1.60;;
7359;SDS011;3720;48.274;7.796;2023-03-23T05:10:59;2.45;;;1.60;;
7359;SDS011;3720;48.274;7.796;2023-03-23T05:13:32;2.70;;;1.70;;
7359;SDS011;3720;48.274;7.796;2023-03-23T05:16:05;3.80;;;1.70;;
7359;SDS011;3720;48.274;7.796;2023-03-23T05:18:37;9.77;;;1.73;;
7359;SDS011;3720;48.274;7.796;2023-03-23T05:21:09;2.90;;;1.60;;
7359;SDS011;3720;48.274;7.796;2023-03-23T05:23:42;2.80;;;1.70;;
7359;SDS011;3720;48.274;7.796;2023-03-23T05:26:14;2.95;;;1.60;;
7359;SDS011;3720;48.274;7.796;2023-03-23T05:28:46;3.15;;;1.67;;
7359;SDS011;3720;48.274;7.796;2023-03-23T05:31:22;2.38;;;1.70;;
7359;SDS011;3720;48.274;7.796;2023-03-23T05:33:54;3.00;;;1.60;;
7359;SDS011;3720;48.274;7.796;2023-03-23T05:36:27;6.43;;;1.80;;
7359;SDS011;3720;48.274;7.796;2023-03-23T05:39:00;2.95;;;1.50;;
7359;SDS011;3720;48.274;7.796;2023-03-23T05:41:33;2.08;;;1.85;;
7359;SDS011;3720;48.274;7.796;2023-03-23T05:44:05;2.55;;;1.83;;
7359;SDS011;3720;48.274;7.796;2023-03-23T05:46:38;2.67;;;1.70;;
7359;SDS011;3720;48.274;7.796;2023-03-23T05:49:09;3.13;;;1.80;;
7359;SDS011;3720;48.274;7.796;2023-03-23T05:51:41;3.22;;;2.20;;
7359;SDS011;3720;48.274;7.796;2023-03-23T05:54:15;4.20;;;2.05;;
7359;SDS011;3720;48.274;7.796;2023-03-23T05:56:48;3.55;;;1.80;;
7359;SDS011;3720;48.274;7.796;2023-03-23T05:59:20;4.85;;;2.42;;
7359;SDS011;3720;48.274;7.796;2023-03-23T06:01:52;4.20;;;2.10;;
7359;SDS011;3720;48.274;7.796;2023-03-23T06:04:25;3.65;;;1.80;;
7359;SDS011;3720;48.274;7.796;2023-03-23T06:06:57;2.30;;;1.65;;
7359;SDS011;3720;48.274;7.796;2023-03-23T06:09:30;3.67;;;2.00;;
7359;SDS011;3720;48.274;7.796;2023-03-23T06:12:02;4.28;;;2.17;;
7359;SDS011;3720;48.274;7.796;2023-03-23T06:14:34;2.45;;;1.92;;
7359;SDS011;3720;48.274;7.796;2023-03-23T06:17:06;4.15;;;2.13;;
7359;SDS011;3720;48.274;7.796;2023-03-23T06:19:38;3.80;;;2.05;;
7359;SDS011;3720;48.274;7.796;2023-03-23T06:22:10;4.25;;;2.10;;
7359;SDS011;3720;48.274;7.796;2023-03-23T06:24:43;2.97;;;2.13;;
7359;SDS011;3720;48.274;7.796;2023-03-23T06:27:15;3.08;;;2.00;;
7359;SDS011;3720;48.274;7.796;2023-03-23T06:29:47;3.80;;;2.30;;
7359;SDS011;3720;48.274;7.796;2023-03-23T06:32:20;2.97;;;2.08;;
7359;SDS011;3720;48.274;7.796;2023-03-23T06:34:53;3.88;;;2.10;;
7359;SDS011;3720;48.274;7.796;2023-03-23T06:37:25;3.92;;;2.10;;
7359;SDS011;3720;48.274;7.796;2023-03-23T06:39:58;3.28;;;2.10;;
7359;SDS011;3720;48.274;7.796;2023-03-23T06:42:30;3.50;;;2.05;;
7359;SDS011;3720;48.274;7.796;2023-03-23T06:45:03;2.75;;;2.13;;
7359;SDS011;3720;48.274;7.796;2023-03-23T06:47:36;3.22;;;2.15;;
7359;SDS011;3720;48.274;7.796;2023-03-23T06:50:08;2.88;;;2.20;;
7359;SDS011;3720;48.274;7.796;2023-03-23T06:52:41;4.10;;;2.35;;
7359;SDS011;3720;48.274;7.796;2023-03-23T06:55:18;2.70;;;2.00;;
7359;SDS011;3720;48.274;7.796;2023-03-23T06:57:50;4.45;;;2.40;;
7359;SDS011;3720;48.274;7.796;2023-03-23T07:00:22;3.53;;;2.20;;
7359;SDS011;3720;48.274;7.796;2023-03-23T07:02:55;4.28;;;2.30;;
7359;SDS011;3720;48.274;7.796;2023-03-23T07:05:27;3.28;;;2.13;;
7359;SDS011;3720;48.274;7.796;2023-03-23T07:08:00;3.08;;;2.13;;
7359;SDS011;3720;48.274;7.796;2023-03-23T07:10:33;4.32;;;2.13;;
7359;SDS011;3720;48.274;7.796;2023-03-23T07:13:06;3.65;;;2.10;;
7359;SDS011;3720;48.274;7.796;2023-03-23T07:15:38;3.53;;;2.35;;
7359;SDS011;3720;48.274;7.796;2023-03-23T07:18:11;3.13;;;2.20;;
7359;SDS011;3720;48.274;7.796;2023-03-23T07:20:46;3.42;;;2.30;;
7359;SDS011;3720;48.274;7.796;2023-03-23T07:23:19;4.13;;;2.30;;
7359;SDS011;3720;48.274;7.796;2023-03-23T07:25:52;3.40;;;2.38;;
7359;SDS011;3720;48.274;7.796;2023-03-23T07:28:24;3.60;;;2.63;;
7359;SDS011;3720;48.274;7.796;2023-03-23T07:30:56;5.72;;;2.72;;
7359;SDS011;3720;48.274;7.796;2023-03-23T07:33:28;6.55;;;3.03;;
7359;SDS011;3720;48.274;7.796;2023-03-23T07:36:00;6.93;;;2.50;;
7359;SDS011;3720;48.274;7.796;2023-03-23T07:38:32;5.50;;;2.42;;
7359;SDS011;3720;48.274;7.796;2023-03-23T07:41:07;5.75;;;2.90;;
7359;SDS011;3720;48.274;7.796;2023-03-23T07:43:39;4.85;;;2.60;;
7359;SDS011;3720;48.274;7.796;2023-03-23T07:46:11;4.35;;;2.63;;
7359;SDS011;3720;48.274;7.796;2023-03-23T07:48:43;4.82;;;2.45;;
7359;SDS011;3720;48.274;7.796;2023-03-23T07:51:16;5.10;;;2.90;;
7359;SDS011;3720;48.274;7.796;2023-03-23T07:53:48;4.22;;;2.78;;
7359;SDS011;3720;48.274;7.796;2023-03-23T07:56:21;6.35;;;2.50;;
7359;SDS011;3720;48.274;7.796;2023-03-23T07:58:53;6.63;;;2.67;;
7359;SDS011;3720;48.274;7.796;2023-03-23T08:01:25;4.32;;;2.63;;
7359;SDS011;3720;48.274;7.796;2023-03-23T08:03:57;4.03;;;2.50;;
7359;SDS011;3720;48.274;7.796;2023-03-23T08:06:31;4.13;;;2.50;;
7359;SDS011;3720;48.274;7.796;2023-03-23T08:09:04;3.90;;;2.63;;
7359;SDS011;3720;48.274;7.796;2023-03-23T08:11:39;5.15;;;2.83;;
7359;SDS011;3720;48.274;7.796;2023-03-23T08:14:11;4.22;;;2.75;;
7359;SDS011;3720;48.274;7.796;2023-03-23T08:16:43;4.60;;;2.60;;
7359;SDS011;3720;48.274;7.796;2023-03-23T08:19:15;3.72;;;2.38;;
7359;SDS011;3720;48.274;7.796;2023-03-23T08:21:47;3.88;;;2.85;;
7359;SDS011;3720;48.274;7.796;2023-03-23T08:24:19;6.30;;;3.08;;
7359;SDS011;3720;48.274;7.796;2023-03-23T08:26:53;5.32;;;2.60;;
7359;SDS011;3720;48.274;7.796;2023-03-23T08:29:25;4.18;;;2.58;;
7359;SDS011;3720;48.274;7.796;2023-03-23T08:31:58;5.30;;;3.17;;
7359;SDS011;3720;48.274;7.796;2023-03-23T08:34:32;5.22;;;3.08;;
7359;SDS011;3720;48.274;7.796;2023-03-23T08:37:04;5.55;;;2.70;;
7359;SDS011;3720;48.274;7.796;2023-03-23T08:39:36;5.32;;;2.70;;
7359;SDS011;3720;48.274;7.796;2023-03-23T08:42:09;4.20;;;2.53;;
7359;SDS011;3720;48.274;7.796;2023-03-23T08:44:42;5.78;;;2.67;;
7359;SDS011;3720;48.274;7.796;2023-03-23T08:47:14;4.18;;;2.35;;
7359;SDS011;3720;48.274;7.796;2023-03-23T08:49:46;7.43;;;2.67;;
7359;SDS011;3720;48.274;7.796;2023-03-23T08:52:22;3.90;;;2.40;;
7359;SDS011;3720;48.274;7.796;2023-03-23T08:54:54;4.22;;;2.75;;
7359;SDS011;3720;48.274;7.796;2023-03-23T08:57:28;3.92;;;2.60;;
7359;SDS011;3720;48.274;7.796;2023-03-23T09:00:00;5.60;;;2.53;;
7359;SDS011;3720;48.274;7.796;2023-03-23T09:02:44;4.47;;;2.50;;
7359;SDS011;3720;48.274;7.796;2023-03-23T09:05:18;6.55;;;2.55;;
7359;SDS011;3720;48.274;7.796;2023-03-23T09:07:55;5.80;;;2.50;;
7359;SDS011;3720;48.274;7.796;2023-03-23T09:10:29;3.22;;;2.50;;
7359;SDS011;3720;48.274;7.796;2023-03-23T09:13:02;4.07;;;2.30;;
7359;SDS011;3720;48.274;7.796;2023-03-23T09:15:34;5.13;;;2.40;;
7359;SDS011;3720;48.274;7.796;2023-03-23T09:18:06;4.78;;;2.25;;
7359;SDS011;3720;48.274;7.796;2023-03-23T09:20:38;3.83;;;2.35;;
7359;SDS011;3720;48.274;7.796;2023-03-23T09:23:12;4.15;;;2.38;;
7359;SDS011;3720;48.274;7.796;2023-03-23T09:25:45;3.80;;;2.47;;
7359;SDS011;3720;48.274;7.796;2023-03-23T09:28:19;3.35;;;2.50;;
7359;SDS011;3720;48.274;7.796;2023-03-23T09:30:51;3.38;;;2.33;;
7359;SDS011;3720;48.274;7.796;2023-03-23T09:33:26;3.30;;;2.30;;
7359;SDS011;3720;48.274;7.796;2023-03-23T09:36:04;5.28;;;2.45;;
7359;SDS011;3720;48.274;7.796;2023-03-23T09:38:38;3.95;;;2.50;;
7359;SDS011;3720;48.274;7.796;2023-03-23T09:41:12;6.50;;;2.35;;
7359;SDS011;3720;48.274;7.796;2023-03-23T09:44:10;5.45;;;2.50;;
7359;SDS011;3720;48.274;7.796;2023-03-23T09:46:54;3.80;;;2.30;;
7359;SDS011;3720;48.274;7.796;2023-03-23T09:49:32;3.97;;;2.20;;
7359;SDS011;3720;48.274;7.796;2023-03-23T09:52:08;3.95;;;2.33;;
7359;SDS011;3720;48.274;7.796;2023-03-23T09:54:44;5.65;;;2.38;;
7359;SDS011;3720;48.274;7.796;2023-03-23T09:57:30;3.42;;;2.45;;
7359;SDS011;3720;48.274;7.796;2023-03-23T10:02:46;3.97;;;2.63;;
7359;SDS011;3720;48.274;7.796;2023-03-23T10:05:26;3.95;;;2.30;;
7359;SDS011;3720;48.274;7.796;2023-03-23T10:08:02;4.25;;;2.30;;
7359;SDS011;3720;48.274;7.796;2023-03-23T10:10:45;3.42;;;2.30;;
7359;SDS011;3720;48.274;7.796;2023-03-23T10:13:24;3.38;;;2.13;;
7359;SDS011;3720;48.274;7.796;2023-03-23T10:16:14;4.68;;;2.40;;
7359;SDS011;3720;48.274;7.796;2023-03-23T10:18:52;4.47;;;2.38;;
7359;SDS011;3720;48.274;7.796;2023-03-23T10:21:29;4.40;;;2.20;;
7359;SDS011;3720;48.274;7.796;2023-03-23T10:24:03;6.20;;;2.20;;
7359;SDS011;3720;48.274;7.796;2023-03-23T10:26:39;5.35;;;2.00;;
7359;SDS011;3720;48.274;7.796;2023-03-23T10:29:20;5.45;;;2.22;;
7359;SDS011;3720;48.274;7.796;2023-03-23T10:32:00;3.95;;;1.98;;
7359;SDS011;3720;48.274;7.796;2023-03-23T10:34:39;5.82;;;2.30;;
7359;SDS011;3720;48.274;7.796;2023-03-23T10:37:17;3.00;;;2.05;;
7359;SDS011;3720;48.274;7.796;2023-03-23T10:39:54;4.35;;;2.70;;
7359;SDS011;3720;48.274;7.796;2023-03-23T10:42:29;4.18;;;2.50;;
7359;SDS011;3720;48.274;7.796;2023-03-23T10:45:10;3.65;;;2.13;;
7359;SDS011;3720;48.274;7.796;2023-03-23T10:47:51;4.75;;;2.40;;
7359;SDS011;3720;48.274;7.796;2023-03-23T10:50:27;3.15;;;2.05;;
7359;SDS011;3720;48.274;7.796;2023-03-23T10:53:03;4.65;;;2.30;;
7359;SDS011;3720;48.274;7.796;2023-03-23T10:55:45;3.58;;;1.83;;
7359;SDS011;3720;48.274;7.796;2023-03-23T10:58:22;3.55;;;2.20;;
7359;SDS011;3720;48.274;7.796;2023-03-23T11:00:55;4.40;;;2.00;;
7359;SDS011;3720;48.274;7.796;2023-03-23T11:03:35;3.67;;;1.90;;
7359;SDS011;3720;48.274;7.796;2023-03-23T11:06:12;3.17;;;2.10;;
7359;SDS011;3720;48.274;7.796;2023-03-23T11:08:52;2.97;;;1.95;;
7359;SDS011;3720;48.274;7.796;2023-03-23T11:11:27;3.85;;;2.00;;
7359;SDS011;3720;48.274;7.796;2023-03-23T11:14:02;4.22;;;1.92;;
7359;SDS011;3720;48.274;7.796;2023-03-23T11:16:45;2.97;;;2.03;;
7359;SDS011;3720;48.274;7.796;2023-03-23T11:19:26;2.80;;;2.00;;
7359;SDS011;3720;48.274;7.796;2023-03-23T11:22:06;5.00;;;2.00;;
7359;SDS011;3720;48.274;7.796;2023-03-23T11:24:40;4.45;;;2.35;;
7359;SDS011;3720;48.274;7.796;2023-03-23T11:27:14;4.75;;;2.08;;
7359;SDS011;3720;48.274;7.796;2023-03-23T11:29:49;3.70;;;2.28;;
7359;SDS011;3720;48.274;7.796;2023-03-23T11:32:24;4.85;;;2.20;;
7359;SDS011;3720;48.274;7.796;2023-03-23T11:34:59;4.25;;;2.10;;
7359;SDS011;3720;48.274;7.796;2023-03-23T11:40:14;3.83;;;2.13;;
7359;SDS011;3720;48.274;7.796;2023-03-23T11:42:48;3.63;;;2.30;;
7359;SDS011;3720;48.274;7.796;2023-03-23T11:45:33;2.97;;;2.17;;
7359;SDS011;3720;48.274;7.796;2023-03-23T11:48:12;3.85;;;2.08;;
7359;SDS011;3720;48.274;7.796;2023-03-23T11:50:51;3.45;;;1.95;;
7359;SDS011;3720;48.274;7.796;2023-03-23T11:53:27;4.18;;;2.00;;
7359;SDS011;3720;48.274;7.796;2023-03-23T11:56:08;4.55;;;2.28;;
7359;SDS011;3720;48.274;7.796;2023-03-23T11:58:47;4.13;;;2.25;;
7359;SDS011;3720;48.274;7.796;2023-03-23T12:01:21;2.63;;;2.15;;
7359;SDS011;3720;48.274;7.796;2023-03-23T12:07:14;4.85;;;2.17;;
7359;SDS011;3720;48.274;7.796;2023-03-23T12:10:00;4.63;;;2.10;;
7359;SDS011;3720;48.274;7.796;2023-03-23T12:12:40;5.07;;;2.00;;
7359;SDS011;3720;48.274;7.796;2023-03-23T12:15:18;3.75;;;2.00;;
7359;SDS011;3720;48.274;7.796;2023-03-23T12:17:57;3.63;;;2.20;;
7359;SDS011;3720;48.274;7.796;2023-03-23T12:20:39;3.70;;;2.17;;
7359;SDS011;3720;48.274;7.796;2023-03-23T12:23:23;4.35;;;1.95;;
7359;SDS011;3720;48.274;7.796;2023-03-23T12:28:55;7.18;;;2.17;;
7359;SDS011;3720;48.274;7.796;2023-03-23T12:31:42;3.88;;;2.00;;
7359;SDS011;3720;48.274;7.796;2023-03-23T12:34:24;3.60;;;2.10;;
7359;SDS011;3720;48.274;7.796;2023-03-23T12:37:16;5.82;;;2.17;;
7359;SDS011;3720;48.274;7.796;2023-03-23T12:40:03;3.90;;;2.30;;
7359;SDS011;3720;48.274;7.796;2023-03-23T12:42:49;4.68;;;2.15;;
7359;SDS011;3720;48.274;7.796;2023-03-23T12:45:43;5.40;;;2.33;;
7359;SDS011;3720;48.274;7.796;2023-03-23T12:48:31;3.55;;;1.92;;
7359;SDS011;3720;48.274;7.796;2023-03-23T12:51:09;7.43;;;2.22;;
7359;SDS011;3720;48.274;7.796;2023-03-23T12:53:49;3.67;;;2.17;;
7359;SDS011;3720;48.274;7.796;2023-03-23T12:56:28;3.45;;;2.30;;
7359;SDS011;3720;48.274;7.796;2023-03-23T12:59:06;3.30;;;2.03;;
7359;SDS011;3720;48.274;7.796;2023-03-23T13:01:44;4.75;;;2.25;;
7359;SDS011;3720;48.274;7.796;2023-03-23T13:06:54;4.05;;;1.90;;
7359;SDS011;3720;48.274;7.796;2023-03-23T13:09:27;3.92;;;2.05;;
7359;SDS011;3720;48.274;7.796;2023-03-23T13:12:09;4.53;;;2.00;;
7359;SDS011;3720;48.274;7.796;2023-03-23T13:14:44;6.47;;;2.17;;
7359;SDS011;3720;48.274;7.796;2023-03-23T13:17:26;2.85;;;1.95;;
7359;SDS011;3720;48.274;7.796;2023-03-23T13:20:16;3.42;;;2.00;;
7359;SDS011;3720;48.274;7.796;2023-03-23T13:23:12;2.83;;;1.75;;
7359;SDS011;3720;48.274;7.796;2023-03-23T13:25:51;4.78;;;2.00;;
7359;SDS011;3720;48.274;7.796;2023-03-23T13:28:29;4.40;;;1.90;;
7359;SDS011;3720;48.274;7.796;2023-03-23T13:31:04;5.37;;;2.10;;
7359;SDS011;3720;48.274;7.796;2023-03-23T13:33:45;2.47;;;1.88;;
7359;SDS011;3720;48.274;7.796;2023-03-23T13:36:26;3.17;;;2.10;;
7359;SDS011;3720;48.274;7.796;2023-03-23T13:39:01;5.53;;;2.20;;
7359;SDS011;3720;48.274;7.796;2023-03-23T13:41:45;3.42;;;2.10;;
7359;SDS011;3720;48.274;7.796;2023-03-23T13:44:23;5.45;;;2.00;;
7359;SDS011;3720;48.274;7.796;2023-03-23T13:46:57;4.38;;;1.90;;
7359;SDS011;3720;48.274;7.796;2023-03-23T13:49:45;3.17;;;1.80;;
7359;SDS011;3720;48.274;7.796;2023-03-23T13:52:22;4.47;;;2.08;;
7359;SDS011;3720;48.274;7.796;2023-03-23T13:55:08;4.75;;;1.92;;
7359;SDS011;3720;48.274;7.796;2023-03-23T13:57:51;4.47;;;1.98;;
7359;SDS011;3720;48.274;7.796;2023-03-23T14:00:36;3.78;;;1.90;;
7359;SDS011;3720;48.274;7.796;2023-03-23T14:03:18;3.80;;;2.00;;
7359;SDS011;3720;48.274;7.796;2023-03-23T14:06:01;2.60;;;1.88;;
7359;SDS011;3720;48.274;7.796;2023-03-23T14:08:37;2.55;;;1.67;;
7359;SDS011;3720;48.274;7.796;2023-03-23T14:11:13;3.40;;;2.10;;
7359;SDS011;3720;48.274;7.796;2023-03-23T14:13:50;3.15;;;1.85;;
7359;SDS011;3720;48.274;7.796;2023-03-23T14:16:35;3.50;;;1.65;;
7359;SDS011;3720;48.274;7.796;2023-03-23T14:19:17;3.65;;;1.80;;
7359;SDS011;3720;48.274;7.796;2023-03-23T14:21:52;3.20;;;1.73;;
7359;SDS011;3720;48.274;7.796;2023-03-23T14:24:27;4.05;;;2.00;;
7359;SDS011;3720;48.274;7.796;2023-03-23T14:27:08;3.88;;;2.00;;
7359;SDS011;3720;48.274;7.796;2023-03-23T14:29:41;3.63;;;1.92;;
7359;SDS011;3720;48.274;7.796;2023-03-23T14:32:15;3.45;;;1.75;;
7359;SDS011;3720;48.274;7.796;2023-03-23T14:34:48;4.10;;;2.00;;
7359;SDS011;3720;48.274;7.796;2023-03-23T14:37:22;3.55;;;2.05;;
7359;SDS011;3720;48.274;7.796;2023-03-23T14:39:55;5.78;;;2.08;;
7359;SDS011;3720;48.274;7.796;2023-03-23T14:42:29;2.75;;;1.88;;
7359;SDS011;3720;48.274;7.796;2023-03-23T14:45:04;3.28;;;1.75;;
7359;SDS011;3720;48.274;7.796;2023-03-23T14:47:40;3.42;;;2.20;;
7359;SDS011;3720;48.274;7.796;2023-03-23T14:50:25;4.53;;;1.50;;
7359;SDS011;3720;48.274;7.796;2023-03-23T14:53:00;2.20;;;1.80;;
7359;SDS011;3720;48.274;7.796;2023-03-23T14:55:41;3.53;;;1.90;;
7359;SDS011;3720;48.274;7.796;2023-03-23T14:58:14;3.90;;;2.00;;
7359;SDS011;3720;48.274;7.796;2023-03-23T15:00:51;3.50;;;1.70;;
7359;SDS011;3720;48.274;7.796;2023-03-23T15:06:03;2.78;;;1.63;;
7359;SDS011;3720;48.274;7.796;2023-03-23T15:08:38;5.13;;;1.70;;
7359;SDS011;3720;48.274;7.796;2023-03-23T15:11:11;2.28;;;1.77;;
7359;SDS011;3720;48.274;7.796;2023-03-23T15:13:55;5.25;;;1.73;;
7359;SDS011;3720;48.274;7.796;2023-03-23T15:16:34;4.03;;;1.80;;
7359;SDS011;3720;48.274;7.796;2023-03-23T15:19:12;3.25;;;1.73;;
7359;SDS011;3720;48.274;7.796;2023-03-23T15:21:49;3.13;;;1.70;;
7359;SDS011;3720;48.274;7.796;2023-03-23T15:24:27;3.95;;;1.90;;
7359;SDS011;3720;48.274;7.796;2023-03-23T15:27:04;2.50;;;1.80;;
7359;SDS011;3720;48.274;7.796;2023-03-23T15:29:48;2.95;;;1.70;;
7359;SDS011;3720;48.274;7.796;2023-03-23T15:32:23;4.65;;;2.00;;
7359;SDS011;3720;48.274;7.796;2023-03-23T15:34:58;4.38;;;1.83;;
7359;SDS011;3720;48.274;7.796;2023-03-23T15:37:41;3.67;;;1.90;;
7359;SDS011;3720;48.274;7.796;2023-03-23T15:40:16;3.25;;;1.90;;
7359;SDS011;3720;48.274;7.796;2023-03-23T15:42:50;2.47;;;1.80;;
7359;SDS011;3720;48.274;7.796;2023-03-23T15:45:36;4.88;;;1.85;;
7359;SDS011;3720;48.274;7.796;2023-03-23T15:48:10;2.90;;;1.90;;
7359;SDS011;3720;48.274;7.796;2023-03-23T15:50:45;2.58;;;1.60;;
7359;SDS011;3720;48.274;7.796;2023-03-23T15:53:22;2.92;;;1.70;;
7359;SDS011;3720;48.274;7.796;2023-03-23T15:55:59;3.10;;;1.90;;
7359;SDS011;3720;48.274;7.796;2023-03-23T15:58:33;2.90;;;1.63;;
7359;SDS011;3720;48.274;7.796;2023-03-23T16:01:07;3.80;;;1.75;;
7359;SDS011;3720;48.274;7.796;2023-03-23T16:03:44;6.20;;;1.80;;
7359;SDS011;3720;48.274;7.796;2023-03-23T16:06:20;3.30;;;1.92;;
7359;SDS011;3720;48.274;7.796;2023-03-23T16:08:54;4.50;;;1.70;;
7359;SDS011;3720;48.274;7.796;2023-03-23T16:11:27;4.00;;;1.95;;
7359;SDS011;3720;48.274;7.796;2023-03-23T16:14:01;2.38;;;1.70;;
7359;SDS011;3720;48.274;7.796;2023-03-23T16:16:33;3.17;;;1.70;;
7359;SDS011;3720;48.274;7.796;2023-03-23T16:19:07;2.00;;;1.60;;
7359;SDS011;3720;48.274;7.796;2023-03-23T16:21:43;2.40;;;1.80;;
7359;SDS011;3720;48.274;7.796;2023-03-23T16:24:15;3.53;;;1.80;;
7359;SDS011;3720;48.274;7.796;2023-03-23T16:26:47;2.28;;;1.52;;
7359;SDS011;3720;48.274;7.796;2023-03-23T16:29:19;6.20;;;1.98;;